sensor_id;sensor_type;location;lat;lon;timestamp;P1;durP1;ratioP1;P2;durP2;ratioP2
10311;SDS011;5201;48.776;9.128;2022-08-03T00:02:24;4.75;;;0.80;;
10311;SDS011;5201;48.776;9.128;2022-08-03T00:04:50;1.13;;;1.00;;
10311;SDS011;5201;48.776;9.128;2022-08-03T00:07:16;2.38;;;0.88;;
10311;SDS011;5201;48.776;9.128;2022-08-03T00:09:41;0.95;;;0.90;;
10311;SDS011;5201;48.776;9.128;2022-08-03T00:12:07;2.38;;;0.73;;
10311;SDS011;5201;48.776;9.128;2022-08-03T00:14:33;0.80;;;0.80;;
10311;SDS011;5201;48.776;9.128;2022-08-03T00:16:59;1.08;;;0.98;;
10311;SDS011;5201;48.776;9.128;2022-08-03T00:19:24;3.13;;;1.15;;
10311;SDS011;5201;48.776;9.128;2022-08-03T00:21:50;1.38;;;0.90;;
10311;SDS011;5201;48.776;9.128;2022-08-03T00:24:15;1.10;;;0.93;;
10311;SDS011;5201;48.776;9.128;2022-08-03T00:26:41;2.83;;;1.00;;
10311;SDS011;5201;48.776;9.128;2022-08-03T00:29:07;0.80;;;0.80;;
10311;SDS011;5201;48.776;9.128;2022-08-03T00:31:32;1.40;;;1.15;;
10311;SDS011;5201;48.776;9.128;2022-08-03T00:33:58;4.22;;;1.05;;
10311;SDS011;5201;48.776;9.128;2022-08-03T00:36:23;0.88;;;0.88;;
10311;SDS011;5201;48.776;9.128;2022-08-03T00:38:49;1.58;;;1.10;;
10311;SDS011;5201;48.776;9.128;2022-08-03T00:41:15;1.38;;;1.05;;
10311;SDS011;5201;48.776;9.128;2022-08-03T00:43:40;1.58;;;1.10;;
10311;SDS011;5201;48.776;9.128;2022-08-03T00:46:06;2.13;;;0.90;;
10311;SDS011;5201;48.776;9.128;2022-08-03T00:48:32;1.55;;;1.17;;
10311;SDS011;5201;48.776;9.128;2022-08-03T00:50:57;1.98;;;1.23;;
10311;SDS011;5201;48.776;9.128;2022-08-03T00:53:23;1.20;;;1.10;;
10311;SDS011;5201;48.776;9.128;2022-08-03T00:55:49;2.50;;;1.20;;
10311;SDS011;5201;48.776;9.128;2022-08-03T00:58:15;3.17;;;1.90;;
10311;SDS011;5201;48.776;9.128;2022-08-03T01:00:40;1.25;;;1.10;;
10311;SDS011;5201;48.776;9.128;2022-08-03T01:03:07;0.95;;;0.95;;
10311;SDS011;5201;48.776;9.128;2022-08-03T01:08:30;0.80;;;0.80;;
10311;SDS011;5201;48.776;9.128;2022-08-03T01:19:01;2.13;;;1.10;;
10311;SDS011;5201;48.776;9.128;2022-08-03T01:27:25;1.30;;;1.10;;
10311;SDS011;5201;48.776;9.128;2022-08-03T01:30:05;1.95;;;1.33;;
10311;SDS011;5201;48.776;9.128;2022-08-03T01:32:40;0.80;;;0.80;;
10311;SDS011;5201;48.776;9.128;2022-08-03T01:35:13;1.13;;;1.02;;
10311;SDS011;5201;48.776;9.128;2022-08-03T01:37:47;1.23;;;1.13;;
10311;SDS011;5201;48.776;9.128;2022-08-03T01:40:16;2.25;;;1.48;;
10311;SDS011;5201;48.776;9.128;2022-08-03T01:42:44;1.27;;;1.17;;
10311;SDS011;5201;48.776;9.128;2022-08-03T01:45:12;1.88;;;1.10;;
10311;SDS011;5201;48.776;9.128;2022-08-03T01:47:40;1.67;;;1.08;;
10311;SDS011;5201;48.776;9.128;2022-08-03T01:50:07;1.20;;;1.10;;
10311;SDS011;5201;48.776;9.128;2022-08-03T01:52:34;1.45;;;1.20;;
10311;SDS011;5201;48.776;9.128;2022-08-03T01:55:04;1.58;;;0.90;;
10311;SDS011;5201;48.776;9.128;2022-08-03T01:57:31;1.13;;;1.02;;
10311;SDS011;5201;48.776;9.128;2022-08-03T01:59:59;2.35;;;1.30;;
10311;SDS011;5201;48.776;9.128;2022-08-03T02:02:25;1.10;;;1.00;;
10311;SDS011;5201;48.776;9.128;2022-08-03T02:04:55;2.05;;;1.20;;
10311;SDS011;5201;48.776;9.128;2022-08-03T02:07:22;0.90;;;0.80;;
10311;SDS011;5201;48.776;9.128;2022-08-03T02:09:50;1.10;;;1.05;;
10311;SDS011;5201;48.776;9.128;2022-08-03T02:12:17;1.20;;;1.10;;
10311;SDS011;5201;48.776;9.128;2022-08-03T02:14:45;1.20;;;1.00;;
10311;SDS011;5201;48.776;9.128;2022-08-03T02:17:13;1.65;;;1.00;;
10311;SDS011;5201;48.776;9.128;2022-08-03T02:19:41;1.42;;;1.20;;
10311;SDS011;5201;48.776;9.128;2022-08-03T02:22:08;1.25;;;1.13;;
10311;SDS011;5201;48.776;9.128;2022-08-03T02:24:36;1.75;;;1.27;;
10311;SDS011;5201;48.776;9.128;2022-08-03T02:27:03;1.20;;;1.10;;
10311;SDS011;5201;48.776;9.128;2022-08-03T02:29:33;1.67;;;1.27;;
10311;SDS011;5201;48.776;9.128;2022-08-03T02:32:02;1.88;;;1.13;;
10311;SDS011;5201;48.776;9.128;2022-08-03T02:34:29;1.60;;;1.50;;
10311;SDS011;5201;48.776;9.128;2022-08-03T02:36:58;0.77;;;0.77;;
10311;SDS011;5201;48.776;9.128;2022-08-03T02:39:27;2.97;;;1.30;;
10311;SDS011;5201;48.776;9.128;2022-08-03T02:41:58;1.30;;;1.15;;
10311;SDS011;5201;48.776;9.128;2022-08-03T02:44:28;1.85;;;1.50;;
10311;SDS011;5201;48.776;9.128;2022-08-03T02:47:02;2.97;;;1.30;;
10311;SDS011;5201;48.776;9.128;2022-08-03T02:49:33;1.20;;;1.10;;
10311;SDS011;5201;48.776;9.128;2022-08-03T02:52:01;1.25;;;1.15;;
10311;SDS011;5201;48.776;9.128;2022-08-03T02:54:28;1.10;;;1.00;;
10311;SDS011;5201;48.776;9.128;2022-08-03T02:56:56;1.75;;;1.50;;
10311;SDS011;5201;48.776;9.128;2022-08-03T02:59:22;1.30;;;1.20;;
10311;SDS011;5201;48.776;9.128;2022-08-03T03:01:49;1.27;;;1.17;;
10311;SDS011;5201;48.776;9.128;2022-08-03T03:04:17;3.08;;;1.30;;
10311;SDS011;5201;48.776;9.128;2022-08-03T03:06:43;1.40;;;1.30;;
10311;SDS011;5201;48.776;9.128;2022-08-03T03:09:09;1.73;;;1.23;;
10311;SDS011;5201;48.776;9.128;2022-08-03T03:11:37;1.40;;;1.30;;
10311;SDS011;5201;48.776;9.128;2022-08-03T03:14:04;1.10;;;1.02;;
10311;SDS011;5201;48.776;9.128;2022-08-03T03:16:31;1.20;;;1.10;;
10311;SDS011;5201;48.776;9.128;2022-08-03T03:18:57;2.25;;;1.52;;
10311;SDS011;5201;48.776;9.128;2022-08-03T03:21:24;1.25;;;1.15;;
10311;SDS011;5201;48.776;9.128;2022-08-03T03:23:51;3.08;;;1.80;;
10311;SDS011;5201;48.776;9.128;2022-08-03T03:26:17;1.40;;;1.30;;
10311;SDS011;5201;48.776;9.128;2022-08-03T03:28:43;1.38;;;1.27;;
10311;SDS011;5201;48.776;9.128;2022-08-03T03:31:09;5.80;;;1.70;;
10311;SDS011;5201;48.776;9.128;2022-08-03T03:33:35;3.40;;;1.65;;
10311;SDS011;5201;48.776;9.128;2022-08-03T03:36:02;2.70;;;1.65;;
10311;SDS011;5201;48.776;9.128;2022-08-03T03:38:30;2.55;;;1.60;;
10311;SDS011;5201;48.776;9.128;2022-08-03T03:40:56;2.40;;;1.58;;
10311;SDS011;5201;48.776;9.128;2022-08-03T03:43:23;2.80;;;1.30;;
10311;SDS011;5201;48.776;9.128;2022-08-03T03:45:48;1.50;;;1.33;;
10311;SDS011;5201;48.776;9.128;2022-08-03T03:48:17;2.33;;;1.50;;
10311;SDS011;5201;48.776;9.128;2022-08-03T03:50:43;2.22;;;2.03;;
10311;SDS011;5201;48.776;9.128;2022-08-03T03:53:10;3.33;;;2.42;;
10311;SDS011;5201;48.776;9.128;2022-08-03T03:55:36;4.78;;;2.40;;
10311;SDS011;5201;48.776;9.128;2022-08-03T03:58:03;2.45;;;2.25;;
10311;SDS011;5201;48.776;9.128;2022-08-03T04:00:29;2.22;;;2.03;;
10311;SDS011;5201;48.776;9.128;2022-08-03T04:02:55;3.53;;;1.48;;
10311;SDS011;5201;48.776;9.128;2022-08-03T04:05:21;1.50;;;1.40;;
10311;SDS011;5201;48.776;9.128;2022-08-03T04:08:06;1.67;;;1.58;;
10311;SDS011;5201;48.776;9.128;2022-08-03T04:13:38;2.03;;;1.80;;
10311;SDS011;5201;48.776;9.128;2022-08-03T04:16:06;3.42;;;1.80;;
10311;SDS011;5201;48.776;9.128;2022-08-03T04:18:36;1.70;;;1.60;;
10311;SDS011;5201;48.776;9.128;2022-08-03T04:21:05;13.82;;;2.15;;
10311;SDS011;5201;48.776;9.128;2022-08-03T04:23:34;3.33;;;2.05;;
10311;SDS011;5201;48.776;9.128;2022-08-03T04:26:06;1.58;;;1.48;;
10311;SDS011;5201;48.776;9.128;2022-08-03T04:28:36;2.10;;;1.90;;
10311;SDS011;5201;48.776;9.128;2022-08-03T04:31:03;2.25;;;1.95;;
10311;SDS011;5201;48.776;9.128;2022-08-03T04:33:32;2.67;;;1.98;;
10311;SDS011;5201;48.776;9.128;2022-08-03T04:36:01;6.15;;;2.17;;
10311;SDS011;5201;48.776;9.128;2022-08-03T04:38:31;2.05;;;1.85;;
10311;SDS011;5201;48.776;9.128;2022-08-03T04:41:01;3.17;;;1.58;;
10311;SDS011;5201;48.776;9.128;2022-08-03T04:43:28;3.50;;;1.85;;
10311;SDS011;5201;48.776;9.128;2022-08-03T04:45:57;2.90;;;2.15;;
10311;SDS011;5201;48.776;9.128;2022-08-03T04:48:24;2.78;;;1.58;;
10311;SDS011;5201;48.776;9.128;2022-08-03T04:50:50;2.47;;;1.98;;
10311;SDS011;5201;48.776;9.128;2022-08-03T04:53:17;2.08;;;1.60;;
10311;SDS011;5201;48.776;9.128;2022-08-03T04:55:42;3.28;;;2.20;;
10311;SDS011;5201;48.776;9.128;2022-08-03T04:58:08;2.47;;;2.03;;
10311;SDS011;5201;48.776;9.128;2022-08-03T05:00:34;2.53;;;2.22;;
10311;SDS011;5201;48.776;9.128;2022-08-03T05:03:00;3.47;;;2.33;;
10311;SDS011;5201;48.776;9.128;2022-08-03T05:05:25;2.30;;;2.10;;
10311;SDS011;5201;48.776;9.128;2022-08-03T05:07:51;2.90;;;1.67;;
10311;SDS011;5201;48.776;9.128;2022-08-03T05:10:17;3.55;;;2.00;;
10311;SDS011;5201;48.776;9.128;2022-08-03T05:12:43;2.63;;;1.70;;
10311;SDS011;5201;48.776;9.128;2022-08-03T05:15:09;3.70;;;1.75;;
10311;SDS011;5201;48.776;9.128;2022-08-03T05:17:35;2.97;;;1.67;;
10311;SDS011;5201;48.776;9.128;2022-08-03T05:20:02;2.90;;;1.60;;
10311;SDS011;5201;48.776;9.128;2022-08-03T05:22:28;1.88;;;1.60;;
10311;SDS011;5201;48.776;9.128;2022-08-03T05:24:54;1.90;;;1.60;;
10311;SDS011;5201;48.776;9.128;2022-08-03T05:27:19;3.65;;;1.40;;
10311;SDS011;5201;48.776;9.128;2022-08-03T05:29:45;2.08;;;1.40;;
10311;SDS011;5201;48.776;9.128;2022-08-03T05:32:15;3.40;;;1.40;;
10311;SDS011;5201;48.776;9.128;2022-08-03T05:34:41;1.58;;;1.40;;
10311;SDS011;5201;48.776;9.128;2022-08-03T05:37:06;2.47;;;1.42;;
10311;SDS011;5201;48.776;9.128;2022-08-03T05:39:32;2.17;;;1.38;;
10311;SDS011;5201;48.776;9.128;2022-08-03T05:41:59;1.17;;;1.17;;
10311;SDS011;5201;48.776;9.128;2022-08-03T05:44:25;2.30;;;1.52;;
10311;SDS011;5201;48.776;9.128;2022-08-03T05:46:51;1.23;;;1.13;;
10311;SDS011;5201;48.776;9.128;2022-08-03T05:49:17;1.92;;;1.42;;
10311;SDS011;5201;48.776;9.128;2022-08-03T05:51:43;2.88;;;1.17;;
10311;SDS011;5201;48.776;9.128;2022-08-03T05:54:09;2.58;;;1.10;;
10311;SDS011;5201;48.776;9.128;2022-08-03T05:56:35;2.92;;;1.45;;
10311;SDS011;5201;48.776;9.128;2022-08-03T05:59:01;1.65;;;1.15;;
10311;SDS011;5201;48.776;9.128;2022-08-03T06:01:27;2.83;;;1.42;;
10311;SDS011;5201;48.776;9.128;2022-08-03T06:03:56;1.85;;;1.08;;
10311;SDS011;5201;48.776;9.128;2022-08-03T06:06:21;1.15;;;1.00;;
10311;SDS011;5201;48.776;9.128;2022-08-03T06:08:47;1.20;;;1.10;;
10311;SDS011;5201;48.776;9.128;2022-08-03T06:11:13;1.15;;;1.00;;
10311;SDS011;5201;48.776;9.128;2022-08-03T06:13:39;1.65;;;1.38;;
10311;SDS011;5201;48.776;9.128;2022-08-03T06:16:05;1.92;;;1.27;;
10311;SDS011;5201;48.776;9.128;2022-08-03T06:18:31;3.05;;;1.00;;
10311;SDS011;5201;48.776;9.128;2022-08-03T06:20:56;1.50;;;1.10;;
10311;SDS011;5201;48.776;9.128;2022-08-03T06:23:22;1.85;;;1.40;;
10311;SDS011;5201;48.776;9.128;2022-08-03T06:25:47;1.17;;;0.98;;
10311;SDS011;5201;48.776;9.128;2022-08-03T06:28:13;1.25;;;1.15;;
10311;SDS011;5201;48.776;9.128;2022-08-03T06:30:39;1.83;;;1.00;;
10311;SDS011;5201;48.776;9.128;2022-08-03T06:33:05;1.58;;;0.80;;
10311;SDS011;5201;48.776;9.128;2022-08-03T06:35:32;1.35;;;0.93;;
10311;SDS011;5201;48.776;9.128;2022-08-03T06:37:57;2.78;;;1.10;;
10311;SDS011;5201;48.776;9.128;2022-08-03T06:40:23;2.15;;;0.88;;
10311;SDS011;5201;48.776;9.128;2022-08-03T06:42:58;0.90;;;0.90;;
10311;SDS011;5201;48.776;9.128;2022-08-03T06:45:28;1.65;;;1.02;;
10311;SDS011;5201;48.776;9.128;2022-08-03T06:48:03;1.20;;;1.10;;
10311;SDS011;5201;48.776;9.128;2022-08-03T06:50:31;3.85;;;1.05;;
10311;SDS011;5201;48.776;9.128;2022-08-03T06:52:57;3.25;;;0.90;;
10311;SDS011;5201;48.776;9.128;2022-08-03T06:55:24;1.00;;;0.90;;
10311;SDS011;5201;48.776;9.128;2022-08-03T06:57:50;1.42;;;0.95;;
10311;SDS011;5201;48.776;9.128;2022-08-03T07:00:16;0.85;;;0.80;;
10311;SDS011;5201;48.776;9.128;2022-08-03T07:02:42;1.38;;;0.95;;
10311;SDS011;5201;48.776;9.128;2022-08-03T07:05:08;2.67;;;1.02;;
10311;SDS011;5201;48.776;9.128;2022-08-03T07:07:35;1.40;;;0.93;;
10311;SDS011;5201;48.776;9.128;2022-08-03T07:10:02;1.85;;;0.80;;
10311;SDS011;5201;48.776;9.128;2022-08-03T07:12:29;1.05;;;0.70;;
10311;SDS011;5201;48.776;9.128;2022-08-03T07:14:56;1.25;;;1.15;;
10311;SDS011;5201;48.776;9.128;2022-08-03T07:17:22;0.95;;;0.70;;
10311;SDS011;5201;48.776;9.128;2022-08-03T07:19:48;4.28;;;0.90;;
10311;SDS011;5201;48.776;9.128;2022-08-03T07:22:14;0.63;;;0.63;;
10311;SDS011;5201;48.776;9.128;2022-08-03T07:24:40;1.52;;;0.88;;
10311;SDS011;5201;48.776;9.128;2022-08-03T07:27:06;1.00;;;0.77;;
10311;SDS011;5201;48.776;9.128;2022-08-03T07:29:33;1.05;;;0.85;;
10311;SDS011;5201;48.776;9.128;2022-08-03T07:31:58;1.15;;;0.90;;
10311;SDS011;5201;48.776;9.128;2022-08-03T07:34:24;2.45;;;0.63;;
10311;SDS011;5201;48.776;9.128;2022-08-03T07:36:50;0.70;;;0.50;;
10311;SDS011;5201;48.776;9.128;2022-08-03T07:39:15;1.45;;;0.70;;
10311;SDS011;5201;48.776;9.128;2022-08-03T07:41:41;1.98;;;0.40;;
10311;SDS011;5201;48.776;9.128;2022-08-03T07:44:06;1.15;;;0.70;;
10311;SDS011;5201;48.776;9.128;2022-08-03T07:46:32;0.98;;;0.70;;
10311;SDS011;5201;48.776;9.128;2022-08-03T07:48:58;3.45;;;0.80;;
10311;SDS011;5201;48.776;9.128;2022-08-03T07:51:23;1.33;;;1.00;;
10311;SDS011;5201;48.776;9.128;2022-08-03T07:53:49;1.05;;;0.68;;
10311;SDS011;5201;48.776;9.128;2022-08-03T07:56:15;1.80;;;0.82;;
10311;SDS011;5201;48.776;9.128;2022-08-03T07:58:40;1.50;;;0.60;;
10311;SDS011;5201;48.776;9.128;2022-08-03T08:01:06;2.83;;;0.85;;
10311;SDS011;5201;48.776;9.128;2022-08-03T08:03:32;1.00;;;0.60;;
10311;SDS011;5201;48.776;9.128;2022-08-03T08:05:57;0.47;;;0.47;;
10311;SDS011;5201;48.776;9.128;2022-08-03T08:08:23;1.30;;;0.55;;
10311;SDS011;5201;48.776;9.128;2022-08-03T08:10:49;0.88;;;0.77;;
10311;SDS011;5201;48.776;9.128;2022-08-03T08:13:14;4.00;;;0.43;;
10311;SDS011;5201;48.776;9.128;2022-08-03T08:15:40;0.40;;;0.40;;
10311;SDS011;5201;48.776;9.128;2022-08-03T08:18:06;1.38;;;0.73;;
10311;SDS011;5201;48.776;9.128;2022-08-03T08:20:32;0.63;;;0.40;;
10311;SDS011;5201;48.776;9.128;2022-08-03T08:23:00;0.45;;;0.45;;
10311;SDS011;5201;48.776;9.128;2022-08-03T08:25:27;0.25;;;0.25;;
10311;SDS011;5201;48.776;9.128;2022-08-03T08:27:54;2.00;;;0.60;;
10311;SDS011;5201;48.776;9.128;2022-08-03T08:30:21;0.65;;;0.50;;
10311;SDS011;5201;48.776;9.128;2022-08-03T08:32:48;0.50;;;0.50;;
10311;SDS011;5201;48.776;9.128;2022-08-03T08:35:14;0.60;;;0.47;;
10311;SDS011;5201;48.776;9.128;2022-08-03T08:37:41;0.50;;;0.50;;
10311;SDS011;5201;48.776;9.128;2022-08-03T08:40:07;0.50;;;0.40;;
10311;SDS011;5201;48.776;9.128;2022-08-03T08:42:37;2.05;;;0.52;;
10311;SDS011;5201;48.776;9.128;2022-08-03T08:45:08;0.50;;;0.50;;
10311;SDS011;5201;48.776;9.128;2022-08-03T08:47:36;0.85;;;0.40;;
10311;SDS011;5201;48.776;9.128;2022-08-03T08:50:04;0.35;;;0.30;;
10311;SDS011;5201;48.776;9.128;2022-08-03T08:52:32;0.60;;;0.50;;
10311;SDS011;5201;48.776;9.128;2022-08-03T08:54:59;1.10;;;0.30;;
10311;SDS011;5201;48.776;9.128;2022-08-03T08:57:29;0.43;;;0.30;;
10311;SDS011;5201;48.776;9.128;2022-08-03T08:59:56;1.45;;;0.35;;
10311;SDS011;5201;48.776;9.128;2022-08-03T09:02:23;0.47;;;0.47;;
10311;SDS011;5201;48.776;9.128;2022-08-03T09:04:53;4.63;;;0.60;;
10311;SDS011;5201;48.776;9.128;2022-08-03T09:07:19;0.30;;;0.30;;
10311;SDS011;5201;48.776;9.128;2022-08-03T09:09:44;0.60;;;0.40;;
10311;SDS011;5201;48.776;9.128;2022-08-03T09:12:10;3.28;;;0.60;;
10311;SDS011;5201;48.776;9.128;2022-08-03T09:14:36;0.45;;;0.40;;
10311;SDS011;5201;48.776;9.128;2022-08-03T09:17:02;4.10;;;0.45;;
10311;SDS011;5201;48.776;9.128;2022-08-03T09:19:28;0.80;;;0.50;;
10311;SDS011;5201;48.776;9.128;2022-08-03T09:22:08;0.60;;;0.40;;
10311;SDS011;5201;48.776;9.128;2022-08-03T09:24:52;2.15;;;0.47;;
10311;SDS011;5201;48.776;9.128;2022-08-03T09:27:20;0.80;;;0.60;;
10311;SDS011;5201;48.776;9.128;2022-08-03T09:29:53;5.00;;;0.40;;
10311;SDS011;5201;48.776;9.128;2022-08-03T09:32:22;0.50;;;0.50;;
10311;SDS011;5201;48.776;9.128;2022-08-03T09:34:49;0.40;;;0.32;;
10311;SDS011;5201;48.776;9.128;2022-08-03T09:37:17;1.38;;;0.55;;
10311;SDS011;5201;48.776;9.128;2022-08-03T09:39:44;0.85;;;0.40;;
10311;SDS011;5201;48.776;9.128;2022-08-03T09:42:11;2.20;;;0.50;;
10311;SDS011;5201;48.776;9.128;2022-08-03T09:44:42;1.50;;;0.32;;
10311;SDS011;5201;48.776;9.128;2022-08-03T09:47:13;0.30;;;0.30;;
10311;SDS011;5201;48.776;9.128;2022-08-03T09:49:41;4.65;;;0.50;;
10311;SDS011;5201;48.776;9.128;2022-08-03T09:52:20;2.72;;;0.40;;
10311;SDS011;5201;48.776;9.128;2022-08-03T09:54:52;0.43;;;0.38;;
10311;SDS011;5201;48.776;9.128;2022-08-03T09:57:21;0.85;;;0.55;;
10311;SDS011;5201;48.776;9.128;2022-08-03T09:59:48;0.85;;;0.50;;
10311;SDS011;5201;48.776;9.128;2022-08-03T10:02:21;0.80;;;0.40;;
10311;SDS011;5201;48.776;9.128;2022-08-03T10:04:51;0.77;;;0.40;;
10311;SDS011;5201;48.776;9.128;2022-08-03T10:07:19;1.40;;;0.40;;
10311;SDS011;5201;48.776;9.128;2022-08-03T10:09:56;0.60;;;0.40;;
10311;SDS011;5201;48.776;9.128;2022-08-03T10:12:26;2.17;;;0.60;;
10311;SDS011;5201;48.776;9.128;2022-08-03T10:14:53;0.40;;;0.40;;
10311;SDS011;5201;48.776;9.128;2022-08-03T10:17:20;1.15;;;0.50;;
10311;SDS011;5201;48.776;9.128;2022-08-03T10:19:47;0.40;;;0.40;;
10311;SDS011;5201;48.776;9.128;2022-08-03T10:22:15;0.40;;;0.40;;
10311;SDS011;5201;48.776;9.128;2022-08-03T10:24:48;0.40;;;0.40;;
10311;SDS011;5201;48.776;9.128;2022-08-03T10:27:18;0.88;;;0.40;;
10311;SDS011;5201;48.776;9.128;2022-08-03T10:29:47;3.45;;;0.60;;
10311;SDS011;5201;48.776;9.128;2022-08-03T10:32:19;5.28;;;1.02;;
10311;SDS011;5201;48.776;9.128;2022-08-03T10:35:04;0.57;;;0.57;;
10311;SDS011;5201;48.776;9.128;2022-08-03T10:37:33;0.50;;;0.43;;
10311;SDS011;5201;48.776;9.128;2022-08-03T10:40:05;0.63;;;0.50;;
10311;SDS011;5201;48.776;9.128;2022-08-03T10:42:33;0.40;;;0.38;;
10311;SDS011;5201;48.776;9.128;2022-08-03T10:45:04;0.95;;;0.60;;
10311;SDS011;5201;48.776;9.128;2022-08-03T10:47:32;0.40;;;0.40;;
10311;SDS011;5201;48.776;9.128;2022-08-03T10:49:58;3.80;;;0.60;;
10311;SDS011;5201;48.776;9.128;2022-08-03T10:52:25;2.65;;;0.85;;
10311;SDS011;5201;48.776;9.128;2022-08-03T10:54:51;2.53;;;0.93;;
10311;SDS011;5201;48.776;9.128;2022-08-03T10:57:42;2.60;;;0.68;;
10311;SDS011;5201;48.776;9.128;2022-08-03T11:00:19;0.45;;;0.45;;
10311;SDS011;5201;48.776;9.128;2022-08-03T11:05:27;0.80;;;0.50;;
10311;SDS011;5201;48.776;9.128;2022-08-03T11:10:47;0.77;;;0.70;;
10311;SDS011;5201;48.776;9.128;2022-08-03T11:13:14;0.50;;;0.50;;
10311;SDS011;5201;48.776;9.128;2022-08-03T11:15:42;1.67;;;0.60;;
10311;SDS011;5201;48.776;9.128;2022-08-03T11:18:10;0.47;;;0.43;;
10311;SDS011;5201;48.776;9.128;2022-08-03T11:20:48;3.17;;;0.80;;
10311;SDS011;5201;48.776;9.128;2022-08-03T11:23:15;0.73;;;0.73;;
10311;SDS011;5201;48.776;9.128;2022-08-03T11:28:38;0.60;;;0.60;;
10311;SDS011;5201;48.776;9.128;2022-08-03T11:34:07;0.85;;;0.85;;
10311;SDS011;5201;48.776;9.128;2022-08-03T11:39:40;1.73;;;0.60;;
10311;SDS011;5201;48.776;9.128;2022-08-03T11:44:47;1.27;;;0.50;;
10311;SDS011;5201;48.776;9.128;2022-08-03T11:47:34;1.67;;;0.70;;
10311;SDS011;5201;48.776;9.128;2022-08-03T11:50:01;1.38;;;0.60;;
10311;SDS011;5201;48.776;9.128;2022-08-03T11:52:32;2.38;;;0.63;;
10311;SDS011;5201;48.776;9.128;2022-08-03T11:54:59;0.68;;;0.30;;
10311;SDS011;5201;48.776;9.128;2022-08-03T11:57:29;0.40;;;0.40;;
10311;SDS011;5201;48.776;9.128;2022-08-03T11:59:55;1.73;;;0.50;;
10311;SDS011;5201;48.776;9.128;2022-08-03T12:02:21;0.75;;;0.50;;
10311;SDS011;5201;48.776;9.128;2022-08-03T12:04:50;1.17;;;0.47;;
10311;SDS011;5201;48.776;9.128;2022-08-03T12:07:17;1.13;;;0.50;;
10311;SDS011;5201;48.776;9.128;2022-08-03T12:10:03;0.47;;;0.47;;
10311;SDS011;5201;48.776;9.128;2022-08-03T12:12:36;0.70;;;0.70;;
10311;SDS011;5201;48.776;9.128;2022-08-03T12:15:03;0.50;;;0.50;;
10311;SDS011;5201;48.776;9.128;2022-08-03T12:17:32;2.85;;;0.60;;
10311;SDS011;5201;48.776;9.128;2022-08-03T12:20:03;0.85;;;0.60;;
10311;SDS011;5201;48.776;9.128;2022-08-03T12:22:34;0.93;;;0.50;;
10311;SDS011;5201;48.776;9.128;2022-08-03T12:25:01;0.90;;;0.63;;
10311;SDS011;5201;48.776;9.128;2022-08-03T12:27:28;0.95;;;0.85;;
10311;SDS011;5201;48.776;9.128;2022-08-03T12:29:54;0.90;;;0.68;;
10311;SDS011;5201;48.776;9.128;2022-08-03T12:32:21;3.80;;;0.60;;
10311;SDS011;5201;48.776;9.128;2022-08-03T12:34:47;0.95;;;0.63;;
10311;SDS011;5201;48.776;9.128;2022-08-03T12:37:17;1.02;;;0.68;;
10311;SDS011;5201;48.776;9.128;2022-08-03T12:39:50;0.98;;;0.60;;
10311;SDS011;5201;48.776;9.128;2022-08-03T12:42:16;0.82;;;0.73;;
10311;SDS011;5201;48.776;9.128;2022-08-03T12:44:42;0.60;;;0.60;;
10311;SDS011;5201;48.776;9.128;2022-08-03T12:47:10;0.85;;;0.77;;
10311;SDS011;5201;48.776;9.128;2022-08-03T12:49:46;0.80;;;0.80;;
10311;SDS011;5201;48.776;9.128;2022-08-03T12:52:16;0.70;;;0.50;;
10311;SDS011;5201;48.776;9.128;2022-08-03T12:54:53;2.65;;;0.60;;
10311;SDS011;5201;48.776;9.128;2022-08-03T12:57:20;1.05;;;0.70;;
10311;SDS011;5201;48.776;9.128;2022-08-03T12:59:46;0.60;;;0.60;;
10311;SDS011;5201;48.776;9.128;2022-08-03T13:04:45;0.50;;;0.50;;
10311;SDS011;5201;48.776;9.128;2022-08-03T13:07:11;0.90;;;0.77;;
10311;SDS011;5201;48.776;9.128;2022-08-03T13:09:47;0.68;;;0.50;;
10311;SDS011;5201;48.776;9.128;2022-08-03T13:12:24;0.70;;;0.70;;
10311;SDS011;5201;48.776;9.128;2022-08-03T13:14:52;1.33;;;1.20;;
10311;SDS011;5201;48.776;9.128;2022-08-03T13:17:22;0.88;;;0.70;;
10311;SDS011;5201;48.776;9.128;2022-08-03T13:19:48;0.57;;;0.57;;
10311;SDS011;5201;48.776;9.128;2022-08-03T13:22:19;0.55;;;0.50;;
10311;SDS011;5201;48.776;9.128;2022-08-03T13:24:46;1.17;;;0.80;;
10311;SDS011;5201;48.776;9.128;2022-08-03T13:27:14;0.50;;;0.50;;
10311;SDS011;5201;48.776;9.128;2022-08-03T13:29:40;0.70;;;0.70;;
10311;SDS011;5201;48.776;9.128;2022-08-03T13:32:07;0.98;;;0.60;;
10311;SDS011;5201;48.776;9.128;2022-08-03T13:34:33;1.20;;;0.85;;
10311;SDS011;5201;48.776;9.128;2022-08-03T13:36:59;0.65;;;0.47;;
10311;SDS011;5201;48.776;9.128;2022-08-03T13:39:25;1.30;;;0.68;;
10311;SDS011;5201;48.776;9.128;2022-08-03T13:41:50;1.00;;;0.90;;
10311;SDS011;5201;48.776;9.128;2022-08-03T13:44:17;0.95;;;0.93;;
10311;SDS011;5201;48.776;9.128;2022-08-03T13:46:43;0.50;;;0.50;;
10311;SDS011;5201;48.776;9.128;2022-08-03T13:49:09;1.33;;;0.63;;
10311;SDS011;5201;48.776;9.128;2022-08-03T13:51:35;2.15;;;0.77;;
10311;SDS011;5201;48.776;9.128;2022-08-03T13:54:01;1.58;;;0.90;;
10311;SDS011;5201;48.776;9.128;2022-08-03T13:56:27;1.23;;;0.70;;
10311;SDS011;5201;48.776;9.128;2022-08-03T13:58:53;1.40;;;0.80;;
10311;SDS011;5201;48.776;9.128;2022-08-03T14:01:18;0.93;;;0.77;;
10311;SDS011;5201;48.776;9.128;2022-08-03T14:03:44;0.90;;;0.77;;
10311;SDS011;5201;48.776;9.128;2022-08-03T14:06:16;1.92;;;0.90;;
10311;SDS011;5201;48.776;9.128;2022-08-03T14:08:42;0.60;;;0.60;;
10311;SDS011;5201;48.776;9.128;2022-08-03T14:11:08;0.82;;;0.80;;
10311;SDS011;5201;48.776;9.128;2022-08-03T14:13:34;2.38;;;0.63;;
10311;SDS011;5201;48.776;9.128;2022-08-03T14:16:00;1.17;;;0.60;;
10311;SDS011;5201;48.776;9.128;2022-08-03T14:18:25;0.80;;;0.70;;
10311;SDS011;5201;48.776;9.128;2022-08-03T14:20:51;2.60;;;0.70;;
10311;SDS011;5201;48.776;9.128;2022-08-03T14:23:17;0.47;;;0.47;;
10311;SDS011;5201;48.776;9.128;2022-08-03T14:25:43;0.70;;;0.70;;
10311;SDS011;5201;48.776;9.128;2022-08-03T14:28:08;2.10;;;0.52;;
10311;SDS011;5201;48.776;9.128;2022-08-03T14:30:34;0.47;;;0.47;;
10311;SDS011;5201;48.776;9.128;2022-08-03T14:33:00;0.80;;;0.80;;
10311;SDS011;5201;48.776;9.128;2022-08-03T14:35:26;3.60;;;0.88;;
10311;SDS011;5201;48.776;9.128;2022-08-03T14:37:51;0.55;;;0.55;;
10311;SDS011;5201;48.776;9.128;2022-08-03T14:40:17;0.55;;;0.55;;
10311;SDS011;5201;48.776;9.128;2022-08-03T14:42:43;1.13;;;0.63;;
10311;SDS011;5201;48.776;9.128;2022-08-03T14:45:09;0.63;;;0.63;;
10311;SDS011;5201;48.776;9.128;2022-08-03T14:47:35;1.25;;;0.57;;
10311;SDS011;5201;48.776;9.128;2022-08-03T14:50:01;0.82;;;0.80;;
10311;SDS011;5201;48.776;9.128;2022-08-03T14:52:29;0.75;;;0.50;;
10311;SDS011;5201;48.776;9.128;2022-08-03T14:54:54;1.52;;;0.57;;
10311;SDS011;5201;48.776;9.128;2022-08-03T14:57:20;1.08;;;0.75;;
10311;SDS011;5201;48.776;9.128;2022-08-03T14:59:46;0.95;;;0.70;;
10311;SDS011;5201;48.776;9.128;2022-08-03T15:02:11;0.60;;;0.60;;
10311;SDS011;5201;48.776;9.128;2022-08-03T15:04:37;3.58;;;1.58;;
10311;SDS011;5201;48.776;9.128;2022-08-03T15:07:03;2.88;;;1.00;;
10311;SDS011;5201;48.776;9.128;2022-08-03T15:09:28;2.50;;;0.52;;
10311;SDS011;5201;48.776;9.128;2022-08-03T15:11:54;2.92;;;0.70;;
10311;SDS011;5201;48.776;9.128;2022-08-03T15:14:19;2.92;;;0.65;;
10311;SDS011;5201;48.776;9.128;2022-08-03T15:16:45;0.80;;;0.60;;
10311;SDS011;5201;48.776;9.128;2022-08-03T15:19:11;2.83;;;0.68;;
10311;SDS011;5201;48.776;9.128;2022-08-03T15:21:37;0.52;;;0.52;;
10311;SDS011;5201;48.776;9.128;2022-08-03T15:24:03;1.60;;;0.60;;
10311;SDS011;5201;48.776;9.128;2022-08-03T15:26:28;0.63;;;0.63;;
10311;SDS011;5201;48.776;9.128;2022-08-03T15:28:54;3.75;;;0.60;;
10311;SDS011;5201;48.776;9.128;2022-08-03T15:31:21;3.05;;;0.90;;
10311;SDS011;5201;48.776;9.128;2022-08-03T15:33:48;0.60;;;0.60;;
10311;SDS011;5201;48.776;9.128;2022-08-03T15:36:15;3.25;;;0.60;;
10311;SDS011;5201;48.776;9.128;2022-08-03T15:38:42;0.95;;;0.70;;
10311;SDS011;5201;48.776;9.128;2022-08-03T15:41:07;0.68;;;0.60;;
10311;SDS011;5201;48.776;9.128;2022-08-03T15:43:33;3.15;;;0.60;;